Rechercher aéroport 
image banner adimage banner adimage banner ad
image banner ad

67CL - Davis

Situé à Colusa, United States

ICAO - 67CL, IATA -

Données fournies par Airmate  

Information générale

Coordonnées: N39°12'4" W122°2'55"
Élévation : 45 feet MSL.
Variation magnétique : 16° East
Voir autres Aéroports à California

Données opérationnelles

Special qualification required
Heure actuelle UTC:
Heure actuelle locale:
Météo à : KMYV - Yuba County ( 43 km )
METAR: KMYV 180553Z AUTO 15011KT 10SM CLR 18/09 A2992 RMK AO2 SLP135 T01830094 10306 20178 51017
Voir NOTAMs / SUP AIP / TFR affectant cet aéroport [VIEW]
Fréquences de communication: [VIEW]

Pistes:

Identifiant RWYQFULongueur (ft)Largeur (ft)SurfaceLDA (ft)
N200075GRAVEL
S200075GRAVEL

Coordonnées de l'aéroport

Adresse: Colusa United States

Vue satellite de 67CL